Time;durP1;ratioP1;P1;durP2;ratioP2;P2;SDS_P1;SDS_P2;PMS_P1;PMS_P2;Temp;Humidity;BMP_temperature;BMP_pressure;BME280_temperature;BME280_humidity;BME280_pressure;Samples;Min_cycle;Max_cycle;Signal;HPM_P1;HPM_P2
2023/02/01 00:00:29;;;;;;;3.77;2.77;;;;;;;2.71;100.00;96144.09;5038664;28;20186;-79
2023/02/01 00:02:55;;;;;;;3.40;2.40;;;;;;;2.84;100.00;96145.06;5051720;28;20190;-79
2023/02/01 00:05:20;;;;;;;4.13;3.00;;;;;;;2.55;100.00;96141.53;5042737;28;20247;-80
2023/02/01 00:07:47;;;;;;;3.77;2.70;;;;;;;2.63;100.00;96141.13;5037574;28;20206;-80
2023/02/01 00:10:13;;;;;;;4.13;2.70;;;;;;;2.82;100.00;96134.03;5038585;28;20223;-79
2023/02/01 00:12:38;;;;;;;3.97;2.73;;;;;;;2.64;100.00;96135.06;5036683;28;20202;-80
2023/02/01 00:15:04;;;;;;;4.77;3.17;;;;;;;2.61;100.00;96120.69;5040257;28;20202;-80
2023/02/01 00:17:29;;;;;;;3.60;2.83;;;;;;;2.82;100.00;96132.31;5033998;28;20182;-79
2023/02/01 00:19:54;;;;;;;3.30;2.40;;;;;;;2.60;100.00;96125.91;5047779;28;20215;-80
2023/02/01 00:22:19;;;;;;;4.80;3.03;;;;;;;2.72;100.00;96128.59;5040116;28;20214;-80
2023/02/01 00:24:45;;;;;;;2.53;2.33;;;;;;;2.76;100.00;96126.72;5024408;28;20726;-79
2023/02/01 00:27:10;;;;;;;2.93;2.10;;;;;;;2.71;100.00;96118.44;5037103;28;20185;-79
2023/02/01 00:29:35;;;;;;;2.17;1.93;;;;;;;2.84;100.00;96109.16;5032512;28;20648;-80
2023/02/01 00:32:01;;;;;;;3.07;2.23;;;;;;;2.64;100.00;96109.44;5042223;28;20689;-80
2023/02/01 00:34:26;;;;;;;2.63;2.33;;;;;;;2.91;100.00;96123.25;5043312;28;20194;-79
2023/02/01 00:36:51;;;;;;;2.93;2.10;;;;;;;2.74;100.00;96100.31;5060366;28;20174;-80
2023/02/01 00:39:17;;;;;;;3.00;2.03;;;;;;;2.79;100.00;96103.44;5051165;28;20186;-80
2023/02/01 00:41:42;;;;;;;2.37;2.00;;;;;;;2.70;100.00;96106.53;5055183;28;20296;-80
2023/02/01 00:44:07;;;;;;;2.90;2.00;;;;;;;2.82;100.00;96113.53;5048611;28;20602;-79
2023/02/01 00:46:33;;;;;;;3.50;2.07;;;;;;;2.92;100.00;96114.69;5035856;28;20225;-81
2023/02/01 00:48:58;;;;;;;2.93;1.80;;;;;;;2.97;100.00;96125.50;5058502;28;20615;-79
2023/02/01 00:51:26;;;;;;;4.37;1.80;;;;;;;2.98;100.00;96128.88;5049487;28;20213;-80
2023/02/01 00:53:51;;;;;;;3.83;2.10;;;;;;;2.98;100.00;96124.56;5088604;28;20171;-80
2023/02/01 00:56:17;;;;;;;2.23;2.03;;;;;;;3.07;99.34;96136.88;5045621;28;20200;-81
2023/02/01 00:58:42;;;;;;;2.13;1.80;;;;;;;2.91;100.00;96136.09;5046486;28;20201;-79
2023/02/01 01:01:09;;;;;;;2.40;2.00;;;;;;;2.98;100.00;96127.13;5046148;28;20214;-81
2023/02/01 01:03:38;;;;;;;2.20;1.90;;;;;;;2.96;100.00;96115.31;5061210;28;20662;-81
2023/02/01 01:06:09;;;;;;;2.40;2.13;;;;;;;2.95;100.00;96109.38;5047090;28;20218;-79
2023/02/01 01:08:35;;;;;;;4.07;2.03;;;;;;;3.01;100.00;96091.06;5055494;28;20198;-80
2023/02/01 01:11:09;;;;;;;2.57;2.00;;;;;;;2.94;100.00;96096.63;5055394;28;20202;-81
2023/02/01 01:13:34;;;;;;;2.20;1.97;;;;;;;2.83;100.00;96098.06;5042325;28;20178;-80
2023/02/01 01:16:02;;;;;;;2.93;2.10;;;;;;;2.92;100.00;96083.91;5048905;28;20213;-81
2023/02/01 01:18:29;;;;;;;2.93;2.10;;;;;;;2.99;100.00;96087.75;5051398;28;20174;-81
2023/02/01 01:20:54;;;;;;;2.80;1.93;;;;;;;2.74;100.00;96084.91;5041732;28;20249;-81
2023/02/01 01:23:19;;;;;;;2.37;2.17;;;;;;;2.92;100.00;96089.03;5044303;28;20189;-80
2023/02/01 01:25:45;;;;;;;2.53;2.00;;;;;;;2.90;100.00;96090.00;5056740;28;20189;-80
2023/02/01 01:28:10;;;;;;;2.57;2.00;;;;;;;3.00;100.00;96088.56;5042698;28;20677;-79
2023/02/01 01:30:35;;;;;;;2.40;2.20;;;;;;;2.94;100.00;96092.31;5044648;28;20189;-80
2023/02/01 01:33:01;;;;;;;2.63;2.33;;;;;;;3.10;100.00;96097.41;5051412;28;20183;-79
2023/02/01 01:35:29;;;;;;;2.47;2.20;;;;;;;2.98;100.00;96100.66;5057247;28;20210;-81
2023/02/01 01:37:54;;;;;;;4.37;2.50;;;;;;;2.98;100.00;96088.66;5040368;28;20185;-80
2023/02/01 01:40:19;;;;;;;2.20;2.00;;;;;;;2.94;100.00;96099.19;5042519;28;20182;-81
2023/02/01 01:42:45;;;;;;;3.33;2.30;;;;;;;3.05;100.00;96091.69;5043275;28;20193;-80
2023/02/01 01:45:25;;;;;;;3.93;2.00;;;;;;;3.17;100.00;96090.97;5042686;28;20222;-80
2023/02/01 01:47:54;;;;;;;2.07;1.93;;;;;;;3.01;100.00;96082.53;5042063;28;20191;-80
2023/02/01 01:50:25;;;;;;;2.13;1.93;;;;;;;3.06;100.00;96085.66;5050528;28;20178;-79
2023/02/01 01:52:52;;;;;;;4.27;3.00;;;;;;;3.03;100.00;96078.16;5038275;28;20182;-80
2023/02/01 01:55:19;;;;;;;2.50;2.00;;;;;;;3.00;100.00;96075.72;5039155;28;20186;-80
2023/02/01 01:57:48;;;;;;;2.20;2.00;;;;;;;3.02;100.00;96067.06;5040071;28;20178;-80
2023/02/01 02:00:19;;;;;;;2.30;2.10;;;;;;;2.97;100.00;96061.34;5042817;28;20185;-80
2023/02/01 02:02:47;;;;;;;3.13;2.13;;;;;;;2.97;100.00;96050.25;5041056;28;20175;-81
2023/02/01 02:05:12;;;;;;;2.97;2.47;;;;;;;3.08;99.79;96069.25;5038315;28;20200;-80
2023/02/01 02:07:40;;;;;;;2.03;1.73;;;;;;;3.14;99.45;96062.94;5050400;28;20197;-81
2023/02/01 02:10:13;;;;;;;1.93;1.83;;;;;;;3.17;99.61;96072.19;5042386;28;20278;-80
2023/02/01 02:12:40;;;;;;;2.33;1.50;;;;;;;2.97;100.00;96078.50;5041689;28;20198;-80
2023/02/01 02:15:08;;;;;;;2.17;1.90;;;;;;;2.88;100.00;96073.88;5039461;28;20189;-80
2023/02/01 02:17:38;;;;;;;2.20;1.80;;;;;;;2.93;100.00;96066.75;5040372;28;20258;-80
2023/02/01 02:20:31;;;;;;;2.43;1.80;;;;;;;3.00;100.00;96050.91;5037189;28;20255;-80
2023/02/01 02:23:06;;;;;;;1.97;1.70;;;;;;;2.98;100.00;96047.59;5055297;28;20651;-81
2023/02/01 02:26:00;;;;;;;1.57;1.43;;;;;;;2.97;100.00;96056.22;5034862;28;20186;-79
2023/02/01 02:29:05;;;;;;;1.70;1.40;;;;;;;3.00;100.00;96050.06;5060457;28;20197;-81
2023/02/01 02:31:41;;;;;;;2.20;1.60;;;;;;;2.97;100.00;96050.25;5040089;28;20263;-80
2023/02/01 02:34:12;;;;;;;1.50;1.40;;;;;;;3.00;100.00;96040.63;5050723;28;20181;-80
2023/02/01 02:36:52;;;;;;;1.60;1.33;;;;;;;3.03;100.00;96049.91;5055185;28;20182;-80
2023/02/01 02:39:36;;;;;;;2.00;1.80;;;;;;;3.03;100.00;96047.34;5050008;28;20300;-79
2023/02/01 02:48:15;;;;;;;4.47;1.80;;;;;;;3.19;100.00;96055.00;5046747;28;20276;-80
2023/02/01 03:04:40;;;;;;;2.53;1.93;;;;;;;3.08;100.00;96033.31;5045525;28;20265;-80
2023/02/01 03:07:43;;;;;;;3.90;2.40;;;;;;;3.22;100.00;96034.25;5048056;28;20194;-82
2023/02/01 03:10:17;;;;;;;1.77;1.60;;;;;;;3.04;100.00;96026.72;5052036;28;20185;-80
2023/02/01 03:12:55;;;;;;;1.83;1.73;;;;;;;3.07;100.00;96025.72;5041848;28;20174;-80
2023/02/01 03:15:26;;;;;;;1.70;1.50;;;;;;;3.12;99.90;96024.53;5043891;28;20181;-80
2023/02/01 03:17:53;;;;;;;2.43;1.63;;;;;;;2.99;100.00;96018.47;5060442;28;20196;-80
2023/02/01 03:20:19;;;;;;;2.57;1.37;;;;;;;2.99;100.00;95997.94;5049750;28;20190;-79
2023/02/01 03:22:46;;;;;;;1.37;1.27;;;;;;;2.98;99.84;95998.84;5049709;28;20185;-80
2023/02/01 03:25:21;;;;;;;1.93;1.50;;;;;;;2.96;99.64;96008.41;5040364;28;20205;-79
2023/02/01 03:27:57;;;;;;;2.17;1.70;;;;;;;3.02;99.63;96018.31;5049487;28;20197;-80
2023/02/01 03:30:26;;;;;;;1.70;1.37;;;;;;;3.07;99.13;96016.28;5045040;28;20194;-79
2023/02/01 03:32:58;;;;;;;2.63;1.77;;;;;;;3.06;98.85;96019.75;5049069;28;20267;-79
2023/02/01 03:35:28;;;;;;;2.43;1.50;;;;;;;3.07;99.12;96007.75;5054692;28;20193;-82
2023/02/01 03:38:04;;;;;;;2.27;1.70;;;;;;;3.05;98.58;95994.19;5050351;28;20213;-80
2023/02/01 03:40:32;;;;;;;1.80;1.70;;;;;;;3.04;98.41;95990.00;5043477;28;20185;-80
2023/02/01 03:42:59;;;;;;;2.40;1.80;;;;;;;2.94;98.47;95997.41;5054383;28;20250;-80
2023/02/01 03:45:33;;;;;;;2.40;1.50;;;;;;;2.97;97.81;95981.81;5046049;28;20244;-80
2023/02/01 03:48:00;;;;;;;3.47;1.90;;;;;;;3.08;97.63;95982.00;5051433;28;20197;-79
2023/02/01 03:50:26;;;;;;;2.07;1.87;;;;;;;3.03;97.50;95990.91;5041835;28;20181;-80
2023/02/01 03:53:05;;;;;;;2.33;1.80;;;;;;;3.11;96.88;95996.41;5052729;28;20178;-79
2023/02/01 03:55:31;;;;;;;2.20;1.60;;;;;;;3.16;96.51;95989.25;5051071;28;20709;-79
2023/02/01 03:58:17;;;;;;;1.90;1.63;;;;;;;3.11;97.13;95994.66;5044084;28;20215;-80
2023/02/01 04:00:51;;;;;;;2.50;1.77;;;;;;;3.08;97.42;95992.25;5034561;28;20206;-79
2023/02/01 04:03:17;;;;;;;1.93;1.53;;;;;;;3.16;97.00;95991.81;5048385;28;20178;-80
2023/02/01 04:05:42;;;;;;;3.00;1.73;;;;;;;3.21;96.32;95996.69;5033351;28;20195;-79
2023/02/01 04:08:07;;;;;;;3.13;1.80;;;;;;;3.18;96.67;95996.84;5040479;28;20201;-79
2023/02/01 04:10:33;;;;;;;2.27;1.77;;;;;;;3.29;95.88;95995.31;5053944;28;20197;-80
2023/02/01 04:12:58;;;;;;;3.30;1.87;;;;;;;3.10;96.75;95998.16;5047064;28;20213;-80
2023/02/01 04:15:24;;;;;;;2.07;1.60;;;;;;;3.08;96.14;95982.00;5041250;28;20201;-81
2023/02/01 04:17:49;;;;;;;2.00;1.70;;;;;;;3.15;96.13;95976.50;5051513;28;20593;-80
2023/02/01 04:20:14;;;;;;;2.03;1.60;;;;;;;3.27;95.00;95979.19;5054173;28;20536;-80
2023/02/01 04:22:40;;;;;;;3.00;1.60;;;;;;;3.19;95.55;95988.25;5040733;28;20221;-79
2023/02/01 04:25:06;;;;;;;2.30;1.70;;;;;;;3.25;95.10;96008.41;5051275;28;20221;-80
2023/02/01 04:27:31;;;;;;;2.23;2.03;;;;;;;3.19;95.58;96016.50;5056390;28;20186;-80
2023/02/01 04:29:56;;;;;;;3.43;2.40;;;;;;;3.27;95.09;96021.97;5043541;28;20239;-80
2023/02/01 04:32:22;;;;;;;2.30;2.10;;;;;;;3.37;94.30;96025.66;5041237;28;20289;-79
2023/02/01 04:34:47;;;;;;;4.50;2.03;;;;;;;3.24;95.09;96007.56;5041349;28;20185;-80
2023/02/01 04:37:12;;;;;;;2.80;1.90;;;;;;;3.19;96.83;95990.81;5045059;28;20190;-81
2023/02/01 04:39:38;;;;;;;2.70;2.10;;;;;;;3.22;97.01;95985.50;4994052;28;1044055;-80
2023/02/01 04:42:03;;;;;;;2.20;1.97;;;;;;;3.22;97.33;95982.94;5063168;28;20222;-80
2023/02/01 04:44:28;;;;;;;3.07;2.20;;;;;;;3.19;97.01;95983.94;5040731;28;20216;-79
2023/02/01 04:46:54;;;;;;;1.90;1.80;;;;;;;3.20;96.51;95995.03;5043178;28;20199;-81
2023/02/01 04:49:21;;;;;;;3.30;2.40;;;;;;;3.19;97.20;95983.13;5040353;28;20267;-81
2023/02/01 04:51:46;;;;;;;4.43;1.87;;;;;;;3.21;96.66;95982.09;5032627;28;20595;-81
2023/02/01 04:54:11;;;;;;;3.50;2.13;;;;;;;3.21;96.77;95965.88;5053288;28;20202;-80
2023/02/01 04:56:37;;;;;;;3.13;2.23;;;;;;;3.21;96.84;95971.03;5044781;28;20186;-80
2023/02/01 04:59:03;;;;;;;3.50;2.07;;;;;;;3.19;96.59;95980.56;5041304;28;20236;-79
2023/02/01 05:01:29;;;;;;;4.93;2.33;;;;;;;3.12;96.59;95978.34;5052946;28;20205;-81
2023/02/01 05:03:54;;;;;;;3.23;2.10;;;;;;;3.02;96.48;95992.66;5073892;28;20181;-80
2023/02/01 05:06:20;;;;;;;2.57;1.80;;;;;;;3.10;96.44;95987.06;5030787;28;20232;-79
2023/02/01 05:08:45;;;;;;;2.23;2.07;;;;;;;3.16;96.66;96001.25;5041969;28;20206;-79
2023/02/01 05:13:47;;;;;;;3.83;2.50;;;;;;;3.21;96.49;96017.22;5049769;28;20214;-79
2023/02/01 05:13:55;;;;;;;4.93;2.60;;;;;;;3.12;98.00;95988.63;5049822;28;20213;-80
2023/02/01 05:16:21;;;;;;;3.93;2.80;;;;;;;3.24;98.27;95981.09;5039911;28;20670;-80
2023/02/01 05:18:46;;;;;;;5.53;2.60;;;;;;;3.08;100.00;95992.25;5049648;28;20255;-81
2023/02/01 05:21:12;;;;;;;5.90;2.90;;;;;;;3.21;99.50;96001.81;5042970;28;20256;-80
2023/02/01 05:24:09;;;;;;;3.53;2.50;;;;;;;3.10;100.00;95993.03;5040750;28;20177;-80
2023/02/01 05:26:22;;;;;;;5.37;2.30;;;;;;;3.05;100.00;96000.16;5051449;28;20213;-80
2023/02/01 05:28:48;;;;;;;4.13;2.60;;;;;;;3.09;100.00;96004.19;5040698;28;20255;-80
2023/02/01 05:31:13;;;;;;;4.23;2.60;;;;;;;3.01;100.00;96006.41;5037858;28;20235;-79
2023/02/01 05:33:38;;;;;;;2.53;2.27;;;;;;;3.07;100.00;96003.44;5039960;28;20203;-80
2023/02/01 05:36:04;;;;;;;4.67;2.13;;;;;;;3.00;100.00;96020.13;5041495;28;20256;-80
2023/02/01 05:38:29;;;;;;;5.37;3.30;;;;;;;2.95;100.00;96011.88;5048792;28;20281;-79
2023/02/01 05:40:55;;;;;;;4.90;2.70;;;;;;;2.70;100.00;96006.53;5034451;28;20210;-80
2023/02/01 05:43:20;;;;;;;3.50;2.60;;;;;;;2.92;100.00;95995.84;5034925;28;20209;-79
2023/02/01 05:45:45;;;;;;;4.00;2.77;;;;;;;2.86;100.00;95996.19;5051330;28;20718;-80
2023/02/01 05:48:11;;;;;;;3.33;2.73;;;;;;;3.02;100.00;95997.78;5040211;28;20293;-80
2023/02/01 05:50:36;;;;;;;5.80;2.77;;;;;;;2.97;100.00;96010.03;5047545;28;20208;-81
2023/02/01 05:53:01;;;;;;;5.47;3.00;;;;;;;2.89;100.00;95991.72;5043752;28;20193;-79
2023/02/01 05:55:27;;;;;;;5.73;3.83;;;;;;;2.86;100.00;95985.94;5034189;28;20711;-80
2023/02/01 05:57:52;;;;;;;4.50;4.03;;;;;;;2.87;100.00;95990.16;5045652;28;20217;-80
2023/02/01 06:00:18;;;;;;;10.53;4.30;;;;;;;2.86;100.00;95996.19;5047272;28;20276;-80
2023/02/01 06:02:43;;;;;;;8.07;5.40;;;;;;;2.74;100.00;96003.69;5051452;28;20237;-81
2023/02/01 06:05:08;;;;;;;7.37;5.20;;;;;;;2.86;100.00;95980.81;5026072;28;20193;-80
2023/02/01 06:07:34;;;;;;;7.70;5.63;;;;;;;2.79;100.00;95980.34;5042943;28;20276;-80
2023/02/01 06:09:59;;;;;;;9.77;5.97;;;;;;;2.82;100.00;95967.31;5044791;28;20190;-81
2023/02/01 06:12:26;;;;;;;9.73;6.20;;;;;;;2.81;100.00;95965.69;5034274;28;20234;-80
2023/02/01 06:14:51;;;;;;;10.30;5.90;;;;;;;2.82;100.00;95960.44;5043400;28;20205;-79
2023/02/01 06:17:17;;;;;;;12.37;5.60;;;;;;;2.74;100.00;95965.22;5048311;28;20193;-79
2023/02/01 06:19:43;;;;;;;8.97;5.67;;;;;;;2.94;100.00;95987.13;5045784;28;20186;-79
2023/02/01 06:22:09;;;;;;;10.20;5.63;;;;;;;2.79;100.00;95980.34;5051808;28;20274;-80
2023/02/01 06:24:34;;;;;;;11.43;5.60;;;;;;;3.03;100.00;95981.47;5038863;28;20264;-79
2023/02/01 06:26:59;;;;;;;9.17;6.60;;;;;;;3.08;100.00;95983.75;5039881;28;20623;-80
2023/02/01 06:29:26;;;;;;;12.57;6.10;;;;;;;3.01;100.00;95985.88;5038110;28;20297;-79
2023/02/01 06:31:51;;;;;;;11.97;6.00;;;;;;;2.93;100.00;95995.75;5043973;28;20208;-77
2023/02/01 06:34:17;;;;;;;10.83;5.07;;;;;;;2.96;100.00;95989.63;5050032;28;20249;-79
2023/02/01 06:36:42;;;;;;;10.17;5.90;;;;;;;3.02;100.00;95987.50;5038204;28;20224;-79
2023/02/01 06:39:07;;;;;;;10.30;5.23;;;;;;;3.02;100.00;95976.44;5037572;28;20575;-79
2023/02/01 06:41:34;;;;;;;12.10;5.30;;;;;;;2.99;99.68;95972.28;5036965;28;20206;-79
2023/02/01 06:43:59;;;;;;;7.50;4.63;;;;;;;2.96;99.47;95990.44;5046461;28;20201;-79
2023/02/01 06:46:25;;;;;;;8.00;4.43;;;;;;;2.93;98.83;95992.38;5042419;28;20647;-79
2023/02/01 06:48:50;;;;;;;8.37;5.30;;;;;;;3.01;98.53;95985.88;5043443;28;20205;-80
2023/02/01 06:51:21;;;;;;;9.33;6.70;;;;;;;2.97;98.74;96002.34;5048088;28;20210;-80
2023/02/01 06:53:46;;;;;;;9.43;5.97;;;;;;;3.07;98.33;96005.19;5046500;28;20245;-79
2023/02/01 06:56:12;;;;;;;11.30;4.97;;;;;;;3.00;99.33;95994.44;5035292;28;20194;-79
2023/02/01 06:58:38;;;;;;;7.93;4.70;;;;;;;3.10;98.51;96005.84;5035631;28;20178;-79
2023/02/01 07:01:05;;;;;;;9.30;5.20;;;;;;;3.02;97.73;95997.78;5035191;28;20227;-79
2023/02/01 07:03:30;;;;;;;12.77;5.67;;;;;;;2.94;98.63;96014.53;5035373;28;20190;-79
2023/02/01 07:05:59;;;;;;;7.23;5.03;;;;;;;2.99;99.02;96030.47;5040151;28;20228;-79
2023/02/01 07:08:27;;;;;;;9.43;5.17;;;;;;;3.11;98.32;96048.56;5040938;28;20684;-80
2023/02/01 07:10:52;;;;;;;11.60;5.90;;;;;;;3.13;98.24;96045.91;5042638;28;20289;-78
2023/02/01 07:13:17;;;;;;;13.50;6.40;;;;;;;3.04;98.94;96031.88;5041562;28;20253;-79
2023/02/01 07:15:43;;;;;;;13.17;5.87;;;;;;;3.07;98.77;96041.94;5050085;28;20203;-80
2023/02/01 07:18:08;;;;;;;18.13;8.30;;;;;;;3.09;99.22;96040.13;5072521;28;20647;-77
2023/02/01 07:20:33;;;;;;;8.63;6.23;;;;;;;3.15;98.72;96043.22;5038616;28;20220;-77
2023/02/01 07:22:59;;;;;;;11.40;6.30;;;;;;;3.18;98.79;96043.91;5045095;28;20190;-79
2023/02/01 07:25:24;;;;;;;9.90;5.63;;;;;;;3.17;99.05;96036.25;5047559;28;20331;-78
2023/02/01 07:27:49;;;;;;;12.70;6.00;;;;;;;3.24;98.18;96064.03;5040269;28;20194;-79
2023/02/01 07:30:15;;;;;;;12.10;5.23;;;;;;;3.11;98.54;96053.69;5038203;28;20218;-79
2023/02/01 07:32:40;;;;;;;9.47;5.17;;;;;;;3.16;98.58;96066.22;5037098;28;20238;-78
2023/02/01 07:35:05;;;;;;;15.80;5.53;;;;;;;3.21;97.68;96065.97;5052520;28;20190;-80
2023/02/01 07:37:31;;;;;;;9.77;5.17;;;;;;;3.30;96.96;96057.72;5047522;28;20218;-79
2023/02/01 07:39:56;;;;;;;9.20;5.53;;;;;;;3.38;96.21;96065.81;5048703;28;20194;-79
2023/02/01 07:42:21;;;;;;;18.70;6.97;;;;;;;3.29;96.91;96053.53;5041889;28;20217;-80
2023/02/01 07:44:46;;;;;;;17.97;7.67;;;;;;;3.38;95.98;96063.25;5035436;28;20194;-80
2023/02/01 07:47:12;;;;;;;11.47;5.90;;;;;;;3.35;95.99;96048.00;5047608;28;20198;-79
2023/02/01 07:49:37;;;;;;;11.30;7.07;;;;;;;3.36;95.46;96041.97;5048460;28;20240;-79
2023/02/01 07:52:02;;;;;;;11.60;5.70;;;;;;;3.36;95.16;96054.81;5058002;28;20267;-80
2023/02/01 07:54:28;;;;;;;13.63;5.33;;;;;;;3.41;94.54;96048.47;5051445;28;20217;-78
2023/02/01 07:56:53;;;;;;;12.47;5.43;;;;;;;3.33;94.40;96060.09;5041929;28;20186;-79
2023/02/01 07:59:18;;;;;;;12.13;5.17;;;;;;;3.44;94.01;96052.59;5050727;28;20190;-80
2023/02/01 08:01:44;;;;;;;12.83;5.17;;;;;;;3.32;93.83;96031.06;5038815;28;20236;-80
2023/02/01 08:04:10;;;;;;;10.90;5.17;;;;;;;3.58;91.99;96047.47;5038761;28;20198;-80
2023/02/01 08:06:36;;;;;;;15.93;5.17;;;;;;;3.58;91.86;96026.09;5048618;28;20182;-80
2023/02/01 08:09:02;;;;;;;13.43;4.57;;;;;;;3.57;91.83;96037.28;5037756;28;20267;-80
2023/02/01 08:11:28;;;;;;;13.90;5.23;;;;;;;3.65;91.59;96038.47;5035909;28;20214;-79
2023/02/01 08:13:53;;;;;;;13.63;4.43;;;;;;;3.51;91.08;96037.66;5044394;28;20190;-79
2023/02/01 08:16:20;;;;;;;14.10;5.03;;;;;;;3.45;91.04;96049.13;5051032;28;20195;-82
2023/02/01 08:18:45;;;;;;;9.57;4.00;;;;;;;3.62;90.61;96050.66;5043523;28;20193;-80
2023/02/01 08:21:20;;;;;;;9.87;4.13;;;;;;;3.60;90.67;96055.06;5053061;28;20206;-79
2023/02/01 08:23:45;;;;;;;12.00;3.90;;;;;;;3.78;90.13;96058.25;5068798;28;20178;-80
2023/02/01 08:26:17;;;;;;;7.27;4.33;;;;;;;3.75;89.71;96058.47;5040643;28;20209;-80
2023/02/01 08:28:56;;;;;;;14.10;4.10;;;;;;;3.85;89.47;96062.94;5041729;28;20973;-80
2023/02/01 08:31:23;;;;;;;8.50;4.60;;;;;;;3.84;88.98;96060.47;5030967;28;20216;-80
2023/02/01 08:33:51;;;;;;;10.73;4.10;;;;;;;4.15;88.43;96069.66;5039987;28;20247;-79
2023/02/01 08:36:16;;;;;;;10.17;3.77;;;;;;;4.21;87.77;96059.00;5038027;28;20555;-80
2023/02/01 08:38:41;;;;;;;10.07;3.47;;;;;;;4.36;87.47;96057.22;5039261;28;20201;-79
2023/02/01 08:41:09;;;;;;;12.87;4.53;;;;;;;4.11;87.88;96074.19;5049414;28;20211;-79
2023/02/01 08:43:35;;;;;;;9.37;3.20;;;;;;;3.96;88.63;96072.53;5042797;28;20214;-79
2023/02/01 08:46:00;;;;;;;9.90;3.93;;;;;;;3.98;89.27;96081.00;5038748;28;20275;-80
2023/02/01 08:48:25;;;;;;;10.73;3.90;;;;;;;3.96;89.37;96091.34;5035463;28;20221;-79
2023/02/01 08:50:50;;;;;;;12.70;4.13;;;;;;;3.82;89.80;96090.56;5048605;28;20694;-80
2023/02/01 08:53:16;;;;;;;10.33;4.03;;;;;;;3.84;90.16;96092.13;5037716;28;20188;-81
2023/02/01 08:55:41;;;;;;;12.03;3.83;;;;;;;3.80;89.95;96092.38;5042575;28;20190;-79
2023/02/01 08:58:06;;;;;;;8.07;4.07;;;;;;;3.69;89.84;96077.63;5048674;28;20198;-79
2023/02/01 09:00:32;;;;;;;8.90;3.93;;;;;;;3.73;89.27;96089.38;5038173;28;20223;-78
2023/02/01 09:02:58;;;;;;;14.97;4.20;;;;;;;3.67;89.58;96077.72;5041218;28;20300;-78
2023/02/01 09:05:26;;;;;;;11.40;3.80;;;;;;;3.79;88.71;96091.56;5073581;28;20186;-79
2023/02/01 09:07:52;;;;;;;16.60;4.57;;;;;;;3.89;88.46;96086.72;5040258;28;20181;-78
2023/02/01 09:10:17;;;;;;;14.70;4.77;;;;;;;3.69;87.26;96091.28;5055104;28;20187;-79
2023/02/01 09:12:42;;;;;;;14.70;3.97;;;;;;;3.74;87.97;96083.31;5057398;28;20267;-79
2023/02/01 09:15:08;;;;;;;16.70;3.50;;;;;;;3.82;87.60;96086.25;5052277;28;20193;-78
2023/02/01 09:17:34;;;;;;;17.77;4.63;;;;;;;3.92;86.96;96073.66;5039372;28;20182;-78
2023/02/01 09:19:59;;;;;;;11.90;4.00;;;;;;;3.89;85.01;96079.00;5047505;28;20248;-79
2023/02/01 09:22:24;;;;;;;12.93;3.67;;;;;;;4.05;85.44;96081.44;5029229;28;20241;-80
2023/02/01 09:24:53;;;;;;;15.53;3.97;;;;;;;4.11;84.97;96096.47;5047118;28;20214;-80
2023/02/01 09:27:18;;;;;;;16.07;4.13;;;;;;;4.33;83.93;96085.69;5048522;28;20727;-79
2023/02/01 09:29:43;;;;;;;15.70;3.30;;;;;;;4.36;83.62;96103.50;5047336;28;20220;-80
2023/02/01 09:32:09;;;;;;;12.47;3.87;;;;;;;4.51;82.59;96082.78;5038535;28;20216;-79
2023/02/01 09:34:34;;;;;;;18.10;3.67;;;;;;;4.40;82.31;96071.50;5028656;28;20202;-78
2023/02/01 09:36:59;;;;;;;12.83;3.90;;;;;;;4.43;82.03;96087.59;5038836;28;20179;-79
2023/02/01 09:39:25;;;;;;;12.10;3.40;;;;;;;4.38;82.32;96088.78;5073804;28;20257;-80
2023/02/01 09:42:14;;;;;;;14.67;3.47;;;;;;;4.59;82.06;96092.56;5043475;28;20208;-81
2023/02/01 09:44:58;;;;;;;12.70;3.20;;;;;;;4.29;80.61;96084.22;5037150;28;20201;-80
2023/02/01 09:47:24;;;;;;;16.07;3.93;;;;;;;4.45;81.38;96092.63;5059412;28;20210;-79
2023/02/01 09:50:03;;;;;;;7.90;3.07;;;;;;;4.51;80.78;96087.94;5042895;28;20244;-79
2023/02/01 09:52:52;;;;;;;14.80;4.50;;;;;;;4.32;81.96;96090.00;5055362;28;20271;-79
2023/02/01 09:55:30;;;;;;;9.13;3.17;;;;;;;4.17;81.44;96085.84;5042841;28;20192;-79
2023/02/01 09:57:59;;;;;;;11.87;3.97;;;;;;;4.16;81.06;96094.47;5035905;28;20227;-80
2023/02/01 10:00:28;;;;;;;13.60;3.13;;;;;;;4.16;81.74;96108.16;5034821;28;20217;-79
2023/02/01 10:02:54;;;;;;;9.50;3.00;;;;;;;4.17;81.55;96107.22;5040003;28;20182;-79
2023/02/01 10:05:47;;;;;;;13.67;3.63;;;;;;;4.21;81.35;96108.66;5041734;28;20189;-81
2023/02/01 10:08:27;;;;;;;9.90;2.80;;;;;;;4.37;80.40;96110.28;5059191;28;20197;-79
2023/02/01 10:10:57;;;;;;;12.53;3.20;;;;;;;4.22;80.24;96112.88;5030244;28;20564;-80
2023/02/01 10:13:25;;;;;;;6.57;2.40;;;;;;;4.20;80.42;96126.75;5059289;28;20180;-80
2023/02/01 10:16:55;;;;;;;13.30;3.47;;;;;;;4.52;79.04;96117.06;5038528;28;20186;-79
2023/02/01 10:19:29;;;;;;;13.43;2.77;;;;;;;4.50;78.60;96129.97;4987091;28;20192;-79
2023/02/01 10:21:59;;;;;;;8.33;3.03;;;;;;;4.32;79.03;96132.88;5007963;28;20505;-79
2023/02/01 10:24:37;;;;;;;9.90;3.00;;;;;;;4.44;78.28;96145.00;4983524;28;20298;-79
2023/02/01 10:27:23;;;;;;;14.43;3.50;;;;;;;4.31;79.13;96123.53;5015816;28;20188;-81
2023/02/01 10:29:54;;;;;;;14.20;3.87;;;;;;;4.25;79.07;96125.56;4992049;28;20226;-79
2023/02/01 10:32:29;;;;;;;7.80;2.90;;;;;;;4.41;78.42;96128.00;4973991;28;20210;-78
2023/02/01 10:35:08;;;;;;;10.97;3.73;;;;;;;4.25;79.00;96129.88;4976739;28;20530;-78
2023/02/01 10:37:34;;;;;;;13.83;3.27;;;;;;;4.18;79.60;96123.47;4978017;28;20294;-79
2023/02/01 10:40:02;;;;;;;11.87;3.57;;;;;;;4.16;79.37;96133.84;4990066;28;20195;-80
2023/02/01 10:42:28;;;;;;;14.60;3.23;;;;;;;4.32;78.71;96135.44;4978037;28;20224;-79
2023/02/01 10:44:59;;;;;;;14.23;2.80;;;;;;;4.42;78.12;96123.69;5009038;28;20659;-78
2023/02/01 10:47:24;;;;;;;13.43;3.00;;;;;;;4.56;76.93;96133.94;4991063;28;20216;-79
2023/02/01 10:50:22;;;;;;;9.50;3.43;;;;;;;4.59;76.27;96118.28;5016861;28;20218;-79
2023/02/01 10:52:56;;;;;;;18.03;3.33;;;;;;;4.71;76.23;96122.69;5014264;28;20212;-80
2023/02/01 10:55:40;;;;;;;11.37;3.13;;;;;;;4.93;75.26;96134.16;5032427;28;20190;-78
2023/02/01 10:58:14;;;;;;;9.47;2.80;;;;;;;4.98;75.01;96129.53;5047161;28;20227;-80
2023/02/01 11:00:45;;;;;;;8.90;2.87;;;;;;;4.94;74.09;96134.06;5031346;28;20212;-81
2023/02/01 11:03:33;;;;;;;10.90;3.07;;;;;;;5.09;73.96;96127.91;5049114;28;20206;-79
2023/02/01 11:05:58;;;;;;;11.57;3.20;;;;;;;5.08;73.60;96130.59;5052412;28;20253;-79
2023/02/01 11:08:23;;;;;;;10.30;2.80;;;;;;;4.79;72.83;96107.56;5043950;28;20248;-80
2023/02/01 11:11:00;;;;;;;11.90;3.17;;;;;;;4.90;73.47;96126.63;5043189;28;20206;-79
2023/02/01 11:13:29;;;;;;;9.23;3.40;;;;;;;4.88;73.31;96126.75;5053371;28;20191;-80
2023/02/01 11:15:55;;;;;;;14.20;3.93;;;;;;;5.11;71.71;96117.50;5059307;28;20191;-79
2023/02/01 11:18:27;;;;;;;11.03;2.77;;;;;;;5.38;71.71;96127.75;5057868;28;20552;-79
2023/02/01 11:20:54;;;;;;;14.07;2.60;;;;;;;5.36;70.52;96112.41;5051635;28;20293;-78
2023/02/01 11:23:22;;;;;;;10.23;2.87;;;;;;;5.42;70.32;96089.75;5045529;28;20185;-80
2023/02/01 11:25:53;;;;;;;10.10;2.50;;;;;;;5.29;70.57;96095.69;5061408;28;20203;-81
2023/02/01 11:28:21;;;;;;;8.10;2.87;;;;;;;5.19;70.53;96102.38;5056618;28;20617;-80
2023/02/01 11:30:47;;;;;;;10.27;2.87;;;;;;;5.27;69.94;96097.56;5045571;28;20226;-82
2023/02/01 11:33:17;;;;;;;8.00;2.40;;;;;;;4.89;67.37;96086.41;5062756;28;20553;-82
2023/02/01 11:35:43;;;;;;;6.67;2.03;;;;;;;4.89;69.38;96094.13;5046221;28;20174;-80
2023/02/01 11:38:22;;;;;;;9.03;2.63;;;;;;;5.18;70.47;96087.06;5037327;28;20186;-80
2023/02/01 11:40:47;;;;;;;16.07;3.73;;;;;;;4.84;70.51;96081.53;5047100;28;20201;-80
2023/02/01 11:43:26;;;;;;;9.93;2.93;;;;;;;5.19;70.02;96068.91;5044479;28;20211;-80
2023/02/01 11:45:59;;;;;;;9.13;2.63;;;;;;;5.07;70.39;96073.13;5046918;28;20205;-80
2023/02/01 11:48:27;;;;;;;9.23;2.53;;;;;;;5.23;69.85;96065.22;5052664;28;20210;-81
2023/02/01 11:50:59;;;;;;;8.17;2.73;;;;;;;5.24;69.68;96043.69;5053239;28;20710;-82
2023/02/01 11:53:54;;;;;;;7.10;2.77;;;;;;;5.33;69.75;96048.22;5070444;28;20187;-80
2023/02/01 11:56:38;;;;;;;4.20;2.33;;;;;;;5.57;68.98;96043.19;5054413;28;20196;-81
2023/02/01 11:59:25;;;;;;;7.63;2.73;;;;;;;5.66;68.31;96050.28;5058354;28;20240;-80
2023/02/01 12:02:10;;;;;;;16.67;3.00;;;;;;;5.27;68.35;96034.94;5048139;28;20209;-80
2023/02/01 12:04:57;;;;;;;7.73;2.83;;;;;;;5.32;70.13;96035.47;5041385;28;20240;-80